Nearby METAR Reports

KLNK - Lincoln, Nebraska, USA
Distance from station: WNW 8mi, 13km
Updated: Tue, 07-Jul-2020 12:54pm CDT
Clear
Clear
 Wind from S
Wind: S 16 mph , 26 km/h
Temperature: 90°F , 32°C
Heat Index: 96°F , 36°C
Dew Point: 70°F , 21°C
Humidity: 52%
Barometer: 29.97 inHg , 1014.9 hPa
Clouds: Clear
Visibility: 10 miles , 16 km
2020/07/07 17:54 KLNK 071754Z 19014KT 10SM CLR 32/21 A2997 RMK AO2 SLP134 T03170211 10317 20228 58020
KAHQ - Wahoo, Nebraska, USA
Distance from station: N 31mi, 49km
Updated: Tue, 07-Jul-2020 1:35pm CDT
Clear
Clear
 Wind from SW
Wind: SW 8 mph , 13 km/h, Gust: 17 mph , 28 km/h
Temperature: 90°F , 32°C
Heat Index: 94°F , 34°C
Dew Point: 68°F , 20°C
Humidity: 49%
Barometer: 29.97 inHg , 1014.9 hPa
Clouds: Clear
Visibility: 10 miles , 16 km
2020/07/07 18:35 KAHQ 071835Z AUTO 22007G15KT 10SM CLR 32/20 A2997 RMK AO2 T03230204
 
KBIE - Beatrice Municip, Nebraska, USA
Distance from station: S 36mi, 57km
Updated: Tue, 07-Jul-2020 1:35pm CDT
Clear
Clear
 Wind from S
Wind: S 8 mph , 13 km/h
Temperature: 88°F , 31°C
Heat Index: 93°F , 34°C
Dew Point: 70°F , 21°C
Humidity: 55%
Barometer: 29.99 inHg , 1015.6 hPa
Clouds: Clear
Visibility: 10 miles , 16 km
2020/07/07 18:35 KBIE 071835Z AUTO 19007KT 10SM CLR 31/21 A2999 RMK AO2 T03100212
KMLE - Omaha/Millard, Nebraska, USA
Distance from station: NE 39mi, 63km
Updated: Tue, 07-Jul-2020 1:35pm CDT
Clear
Clear
 Wind from S
Wind: S 10 mph , 17 km/h
Temperature: 91°F , 33°C
Heat Index: 96°F , 36°C
Dew Point: 70°F , 21°C
Humidity: 49%
Barometer: 29.96 inHg , 1014.6 hPa
Clouds: Clear
Visibility: 10 miles , 16 km
2020/07/07 18:35 KMLE 071835Z AUTO 19009KT 170V240 10SM CLR 33/21 A2996 RMK AO2 T03260208
 
KPMV - Plattsmouth Muni, Nebraska, USA
Distance from station: ENE 39mi, 63km
Updated: Tue, 07-Jul-2020 1:35pm CDT
Partly Cloudy
Partly Cloudy
 Wind from S
Wind: S 10 mph , 17 km/h
Temperature: 90°F , 32°C
Heat Index: 99°F , 37°C
Dew Point: 73°F , 23°C
Humidity: 59%
Barometer: 29.98 inHg , 1015.2 hPa
Clouds: Partly Cloudy
Visibility: 10 miles , 16 km
Cloud details: Partly Cloudy 3600 ft
2020/07/07 18:35 KPMV 071835Z AUTO 17009KT 10SM SCT036 32/23 A2998 RMK AO2 T03160228
KAFK - Nebraska City, Nebraska, USA
Distance from station: ESE 43mi, 69km
Updated: Tue, 07-Jul-2020 1:35pm CDT
Partly Cloudy
Partly Cloudy
 Wind from SSW
Wind: SSW 10 mph , 17 km/h
Temperature: 88°F , 31°C
Heat Index: 100°F , 38°C
Dew Point: 77°F , 25°C
Humidity: 70%
Barometer: 29.98 inHg , 1015.2 hPa
Clouds: Partly Cloudy
Visibility: 10 miles , 16 km
Cloud details: Partly Cloudy 3400 ft
2020/07/07 18:35 KAFK 071835Z AUTO 20009KT 10SM SCT034 31/25 A2998 RMK AO2 T03110247
 
KOFF - Offutt Afb/Belle, Nebraska, USA
Distance from station: ENE 44mi, 70km
Updated: Tue, 07-Jul-2020 12:56pm CDT
Clear
Clear
 Wind from calm
Wind: Calm
Temperature: 90°F , 32°C
Heat Index: 97°F , 36°C
Dew Point: 72°F , 22°C
Humidity: 55%
Barometer: 29.97 inHg , 1014.9 hPa
Clouds: Clear
Visibility: 10 miles , 16 km
2020/07/07 17:56 KOFF 071756Z AUTO 00000KT 10SM CLR 32/22 A2997 RMK AO2 SLP143 60000 T03200215 10321 20222 55017 $
KFET - Fremont Muni Arp, Nebraska, USA
Distance from station: N 46mi, 74km
Updated: Tue, 07-Jul-2020 1:35pm CDT
Clear
Clear
 Wind from S
Wind: S 9 mph , 15 km/h
Temperature: 90°F , 32°C
Heat Index: 101°F , 38°C
Dew Point: 75°F , 24°C
Humidity: 63%
Barometer: 29.96 inHg , 1014.6 hPa
Clouds: Clear
Visibility: 10 miles , 16 km
2020/07/07 18:35 KFET 071835Z AUTO 18008KT 160V220 10SM CLR 32/24 A2996 RMK AO2 T03170235
 
KBTA - Blair Muni, Nebraska, USA
Distance from station: NNE 51mi, 82km
Updated: Tue, 07-Jul-2020 1:35pm CDT
Clear
Clear
 Wind from SSW
Wind: SSW 8 mph , 13 km/h
Temperature: 88°F , 31°C
Heat Index: 96°F , 36°C
Dew Point: 73°F , 23°C
Humidity: 62%
Barometer: 29.97 inHg , 1014.9 hPa
Clouds: Clear
Visibility: 10 miles , 16 km
2020/07/07 18:35 KBTA 071835Z AUTO 21007KT 10SM CLR 31/23 A2997 RMK AO2 T03120225
KJYR - York, Nebraska, USA
Distance from station: W 52mi, 84km
Updated: Tue, 07-Jul-2020 1:35pm CDT
Clear
Clear
 Wind from S
Wind: S 14 mph , 22 km/h
Temperature: 88°F , 31°C
Heat Index: 95°F , 35°C
Dew Point: 72°F , 22°C
Humidity: 59%
Barometer: 29.98 inHg , 1015.2 hPa
Clouds: Clear
Visibility: 10 miles , 16 km
2020/07/07 18:35 KJYR 071835Z AUTO 17012KT 10SM CLR 31/22 A2998 RMK AO2
 
KOMA - Omaha/Eppley, Nebraska, USA
Distance from station: NE 53mi, 85km
Updated: Tue, 07-Jul-2020 12:52pm CDT
Few Clouds
Few Clouds
 Wind from SW
Wind: SW 15 mph , 24 km/h
Temperature: 91°F , 33°C
Heat Index: 96°F , 36°C
Dew Point: 70°F , 21°C
Humidity: 49%
Barometer: 29.96 inHg , 1014.6 hPa
Clouds: Few Clouds
Visibility: 10 miles , 16 km
Cloud details: Few Clouds 16000 ft
2020/07/07 17:52 KOMA 071752Z 22013KT 10SM FEW160 33/21 A2996 RMK AO2 SLP134 T03280206 10328 20206 56015
KOLU - Columbus Muni, Nebraska, USA
Distance from station: NW 58mi, 93km
Updated: Tue, 07-Jul-2020 12:56pm CDT
Clear
Clear
 Wind from SSW
Wind: SSW 13 mph , 20 km/h
Temperature: 88°F , 31°C
Heat Index: 95°F , 35°C
Dew Point: 72°F , 22°C
Humidity: 59%
Barometer: 29.98 inHg , 1015.2 hPa
Clouds: Clear
Visibility: 10 miles , 16 km
2020/07/07 17:56 KOLU 071756Z AUTO 20011KT 10SM CLR 31/22 A2998 RMK AO2 SLP141 T03060222 10306 20206 55012